MSC Maria Saveria — 3FLE8 — position and weather

sailwx.info

Track history (hours):
 
Tides and Currents Weather Stations Pressure Air Temp Water Temp Dewpoint Dewpoint Depression Visibility Wind Speed Wind Dir Waves Ship Positions

MSC Maria Saveria

Last reported at 2014-Oct-23 09:23 UTC. Time now 2014-Oct-25 05:44 UTC.
Position N 38°08' E 015°35'.

Length 366 m; draft 14.5 m.

Type: Ship (hazmat cat A). MMSI: 372400000.

Date/timePositionNaut miles runAvg speedWind from/ knotsBaromVisibWave heightAir tempDewpointWater temp
2014-Oct-23 09:23N 38°08' E 015°35'1314.5
2014-Oct-23 08:29N 38°19' E 015°43'12 0.4
2014-Oct-22 05:18N 38°27' E 015°54'18 1.1
2014-Oct-21 13:27N 38°26' E 015°32'1314.8
2014-Oct-21 12:32N 38°22' E 015°15'1616.3
2014-Oct-21 11:33N 38°18' E 014°56'3616.5
2014-Oct-21 09:20N 38°20' E 014°09'1316.5
2014-Oct-21 08:33N 38°20' E 013°53'1716.7
2014-Oct-21 07:33N 38°20' E 013°31'1717.0
2014-Oct-21 06:33N 38°22' E 013°10'1717.0
2014-Oct-21 05:33N 38°22' E 012°48'1716.8
2014-Oct-21 04:33N 38°20' E 012°27'10317.1
2014-Oct-20 22:33N 38°09' E 010°17'1616.5
2014-Oct-20 21:34N 38°06' E 009°56'1716.3
2014-Oct-20 20:33N 38°04' E 009°35'1616.3
2014-Oct-20 19:33N 38°03' E 009°15'1616.5
2014-Oct-20 18:33N 38°00' E 008°54'1716.5
2014-Oct-20 17:33N 37°58' E 008°33'1716.5
2014-Oct-20 16:33N 37°55' E 008°13'1816.7
2014-Oct-20 15:28N 37°51' E 007°50'2020.5
2014-Oct-20 14:29N 37°48' E 007°25'1614.0
2014-Oct-20 13:22N 37°45' E 007°06'4816.3
2014-Oct-20 10:24N 37°36' E 006°06'3116.6
2014-Oct-20 08:30N 37°30' E 005°27'1516.3
2014-Oct-20 07:33N 37°28' E 005°08'10217.0
2014-Oct-20 01:33N 37°09' E 003°02'1716.8
2014-Oct-20 00:34N 37°06' E 002°41'2316.6
2014-Oct-19 23:12N 37°02' E 002°14'1516.5
2014-Oct-19 22:17N 36°58' E 001°55'3117.5
2014-Oct-19 20:32N 36°54' E 001°17'1717.2
2014-Oct-19 19:33N 36°50' E 000°56'1717.2
2014-Oct-19 18:33N 36°47' E 000°35'1816.6
2014-Oct-19 17:30N 36°44' E 000°14'2216.1
2014-Oct-19 16:09N 36°39' W 000°13'916.0
2014-Oct-19 15:33N 36°38' W 000°24'1616.0
2014-Oct-19 14:33N 36°35' W 000°44'1716.0
2014-Oct-19 13:31N 36°32' W 001°04'1816.5
2014-Oct-19 12:27N 36°29' W 001°26'1617.3
2014-Oct-19 11:33N 36°26' W 001°45'17016.7
2014-Oct-19 01:24N 35°60' W 005°12'1517.3
2014-Oct-19 00:33N 35°57' W 005°30'2116.1
2014-Oct-18 23:15N 35°55' W 005°56'1415.6
2014-Oct-18 22:20N 35°55' W 006°14'1215.7
2014-Oct-18 21:33N 35°55' W 006°29'1615.9
2014-Oct-18 20:33N 35°58' W 006°48'1616.4
2014-Oct-18 19:33N 36°03' W 007°07'1616.3
2014-Oct-18 18:33N 36°07' W 007°27'1716.2
2014-Oct-18 17:32N 36°12' W 007°46'2116.1
2014-Oct-18 16:12N 36°18' W 008°12'1116.1
2014-Oct-18 15:31N 36°21' W 008°25'3115.8
2014-Oct-18 13:32N 36°30' W 009°02'3015.4
2014-Oct-18 11:33N 36°48' W 009°33'3716.0
2014-Oct-18 09:15N 37°24' W 009°45'1116.1
2014-Oct-18 08:33N 37°35' W 009°48'1615.8
2014-Oct-18 07:33N 37°50' W 009°53'1715.9
2014-Oct-18 06:30N 38°06' W 009°58'  
2014-Oct-16 00:34N 49°52' W 003°18'1814.1
2014-Oct-15 23:17N 49°60' W 002°53'1114.6
2014-Oct-15 22:33N 50°03' W 002°37'1915.1
2014-Oct-15 21:18N 50°08' W 002°09'1316.2
2014-Oct-15 20:31N 50°11' W 001°50'1616.9
2014-Oct-15 19:33N 50°16' W 001°25'6716.7
2014-Oct-15 15:33N 50°32' E 000°17'1515.1
2014-Oct-15 14:33N 50°37' E 000°39'1515.2
2014-Oct-15 13:33N 50°46' E 000°58'1615.9
2014-Oct-15 12:33N 50°55' E 001°19'1717.4
2014-Oct-15 11:33N 51°08' E 001°38'1717.5
2014-Oct-15 10:33N 51°22' E 001°54'1716.6
2014-Oct-15 09:33N 51°35' E 002°11'1616.1
2014-Oct-15 08:33N 51°47' E 002°28'1915.4
2014-Oct-15 07:19N 52°01' E 002°49'1515.3
2014-Oct-15 06:21N 52°03' E 003°13'1215.4
2014-Oct-15 05:33N 52°04' E 003°33'1313.4
2014-Oct-15 04:33N 52°03' E 003°55'8 8.3
2014-Oct-15 03:32N 51°58' E 004°05'1 0.8
2014-Oct-15 02:33N 51°58' E 004°04'0 0.0
2014-Oct-15 01:33N 51°58' E 004°04'0 0.0
2014-Oct-15 00:33N 51°58' E 004°04'0 0.0
2014-Oct-14 23:33N 51°58' E 004°04'0 0.0
2014-Oct-14 22:33N 51°58' E 004°04'0 0.0
2014-Oct-14 21:33N 51°58' E 004°04'0 0.0
2014-Oct-14 20:30N 51°58' E 004°04'0 0.0
2014-Oct-14 19:33N 51°58' E 004°04'0 0.0
2014-Oct-14 18:33N 51°58' E 004°04'0 0.0
2014-Oct-14 17:33N 51°58' E 004°04'0 0.0
2014-Oct-14 16:33N 51°58' E 004°04'0 0.0
2014-Oct-14 15:33N 51°58' E 004°04'0 0.0
2014-Oct-14 14:33N 51°58' E 004°04'0 0.0
2014-Oct-14 13:33N 51°58' E 004°04'0 0.0
2014-Oct-14 12:33N 51°58' E 004°04'0 0.0
2014-Oct-14 11:33N 51°58' E 004°04'0 0.0
2014-Oct-14 10:33N 51°58' E 004°04'0 0.0
2014-Oct-14 09:33N 51°58' E 004°04'0 0.0
2014-Oct-14 08:30N 51°58' E 004°04'0 0.0
2014-Oct-14 07:33N 51°58' E 004°04'0 0.0
2014-Oct-14 06:33N 51°58' E 004°04'0 0.0
2014-Oct-14 05:33N 51°58' E 004°04'0 0.0
2014-Oct-14 04:34N 51°58' E 004°04'4 3.9
2014-Oct-14 03:34N 52°00' E 003°59'7 7.1
2014-Oct-14 02:33N 52°00' E 003°47'1010.2
2014-Oct-14 01:33N 51°57' E 003°32'4 3.4
2014-Oct-14 00:31N 51°54' E 003°27'0 0.0
2014-Oct-13 23:28N 51°54' E 003°28'0 0.1
2014-Oct-13 22:31N 51°54' E 003°28'0 0.0
2014-Oct-13 21:31N 51°54' E 003°28'4 4.0
2014-Oct-13 20:32N 51°53' E 003°22'1111.6
2014-Oct-13 19:33N 51°43' E 003°13'1615.7
2014-Oct-13 18:33N 51°29' E 003°02'1211.8
2014-Oct-13 17:34N 51°24' E 003°20'1413.5
2014-Oct-13 16:33N 51°26' E 003°41'9 9.3
2014-Oct-13 15:34N 51°22' E 003°55'6 5.6
2014-Oct-13 14:34N 51°22' E 004°04'8 8.3
2014-Oct-13 13:34N 51°21' E 004°17'0 0.4
2014-Oct-13 12:34N 51°21' E 004°17'1 0.6
2014-Oct-13 11:33N 51°20' E 004°18'1 1.2
2014-Oct-13 10:32N 51°19' E 004°19'0 0.0
2014-Oct-13 09:32N 51°19' E 004°19'  
Track history (hours):
 
Tides and Currents Weather Stations Pressure Air Temp Water Temp Dewpoint Dewpoint Depression Visibility Wind Speed Wind Dir Waves Ship Positions

MSC Maria Saveria

Last reported at 2014-Oct-23 09:23 UTC. Time now 2014-Oct-25 05:44 UTC.
Position N 38°08' E 015°35'.

Length 366 m; draft 14.5 m.

Type: Ship (hazmat cat A). MMSI: 372400000.

Date/timePositionNaut miles runAvg speedWind from/ knotsBaromVisibWave heightAir tempDewpointWater temp
2014-Oct-23 09:23N 38°08' E 015°35'1314.5
2014-Oct-23 08:29N 38°19' E 015°43'12 0.4
2014-Oct-22 05:18N 38°27' E 015°54'18 1.1
2014-Oct-21 13:27N 38°26' E 015°32'1314.8
2014-Oct-21 12:32N 38°22' E 015°15'1616.3
2014-Oct-21 11:33N 38°18' E 014°56'3616.5
2014-Oct-21 09:20N 38°20' E 014°09'1316.5
2014-Oct-21 08:33N 38°20' E 013°53'1716.7
2014-Oct-21 07:33N 38°20' E 013°31'1717.0
2014-Oct-21 06:33N 38°22' E 013°10'1717.0
2014-Oct-21 05:33N 38°22' E 012°48'1716.8
2014-Oct-21 04:33N 38°20' E 012°27'10317.1
2014-Oct-20 22:33N 38°09' E 010°17'1616.5
2014-Oct-20 21:34N 38°06' E 009°56'1716.3
2014-Oct-20 20:33N 38°04' E 009°35'1616.3
2014-Oct-20 19:33N 38°03' E 009°15'1616.5
2014-Oct-20 18:33N 38°00' E 008°54'1716.5
2014-Oct-20 17:33N 37°58' E 008°33'1716.5
2014-Oct-20 16:33N 37°55' E 008°13'1816.7
2014-Oct-20 15:28N 37°51' E 007°50'2020.5
2014-Oct-20 14:29N 37°48' E 007°25'1614.0
2014-Oct-20 13:22N 37°45' E 007°06'4816.3
2014-Oct-20 10:24N 37°36' E 006°06'3116.6
2014-Oct-20 08:30N 37°30' E 005°27'1516.3
2014-Oct-20 07:33N 37°28' E 005°08'10217.0
2014-Oct-20 01:33N 37°09' E 003°02'1716.8
2014-Oct-20 00:34N 37°06' E 002°41'2316.6
2014-Oct-19 23:12N 37°02' E 002°14'1516.5
2014-Oct-19 22:17N 36°58' E 001°55'3117.5
2014-Oct-19 20:32N 36°54' E 001°17'1717.2
2014-Oct-19 19:33N 36°50' E 000°56'1717.2
2014-Oct-19 18:33N 36°47' E 000°35'1816.6
2014-Oct-19 17:30N 36°44' E 000°14'2216.1
2014-Oct-19 16:09N 36°39' W 000°13'916.0
2014-Oct-19 15:33N 36°38' W 000°24'1616.0
2014-Oct-19 14:33N 36°35' W 000°44'1716.0
2014-Oct-19 13:31N 36°32' W 001°04'1816.5
2014-Oct-19 12:27N 36°29' W 001°26'1617.3
2014-Oct-19 11:33N 36°26' W 001°45'17016.7
2014-Oct-19 01:24N 35°60' W 005°12'1517.3
2014-Oct-19 00:33N 35°57' W 005°30'2116.1
2014-Oct-18 23:15N 35°55' W 005°56'1415.6
2014-Oct-18 22:20N 35°55' W 006°14'1215.7
2014-Oct-18 21:33N 35°55' W 006°29'1615.9
2014-Oct-18 20:33N 35°58' W 006°48'1616.4
2014-Oct-18 19:33N 36°03' W 007°07'1616.3
2014-Oct-18 18:33N 36°07' W 007°27'1716.2
2014-Oct-18 17:32N 36°12' W 007°46'2116.1
2014-Oct-18 16:12N 36°18' W 008°12'1116.1
2014-Oct-18 15:31N 36°21' W 008°25'3115.8
2014-Oct-18 13:32N 36°30' W 009°02'3015.4
2014-Oct-18 11:33N 36°48' W 009°33'3716.0
2014-Oct-18 09:15N 37°24' W 009°45'1116.1
2014-Oct-18 08:33N 37°35' W 009°48'1615.8
2014-Oct-18 07:33N 37°50' W 009°53'1715.9
2014-Oct-18 06:30N 38°06' W 009°58'  
2014-Oct-16 00:34N 49°52' W 003°18'1814.1
2014-Oct-15 23:17N 49°60' W 002°53'1114.6
2014-Oct-15 22:33N 50°03' W 002°37'1915.1
2014-Oct-15 21:18N 50°08' W 002°09'1316.2
2014-Oct-15 20:31N 50°11' W 001°50'1616.9
2014-Oct-15 19:33N 50°16' W 001°25'6716.7
2014-Oct-15 15:33N 50°32' E 000°17'1515.1
2014-Oct-15 14:33N 50°37' E 000°39'1515.2
2014-Oct-15 13:33N 50°46' E 000°58'1615.9
2014-Oct-15 12:33N 50°55' E 001°19'1717.4
2014-Oct-15 11:33N 51°08' E 001°38'1717.5
2014-Oct-15 10:33N 51°22' E 001°54'1716.6
2014-Oct-15 09:33N 51°35' E 002°11'1616.1
2014-Oct-15 08:33N 51°47' E 002°28'1915.4
2014-Oct-15 07:19N 52°01' E 002°49'1515.3
2014-Oct-15 06:21N 52°03' E 003°13'1215.4
2014-Oct-15 05:33N 52°04' E 003°33'1313.4
2014-Oct-15 04:33N 52°03' E 003°55'8 8.3
2014-Oct-15 03:32N 51°58' E 004°05'1 0.8
2014-Oct-15 02:33N 51°58' E 004°04'0 0.0
2014-Oct-15 01:33N 51°58' E 004°04'0 0.0
2014-Oct-15 00:33N 51°58' E 004°04'0 0.0
2014-Oct-14 23:33N 51°58' E 004°04'0 0.0
2014-Oct-14 22:33N 51°58' E 004°04'0 0.0
2014-Oct-14 21:33N 51°58' E 004°04'0 0.0
2014-Oct-14 20:30N 51°58' E 004°04'0 0.0
2014-Oct-14 19:33N 51°58' E 004°04'0 0.0
2014-Oct-14 18:33N 51°58' E 004°04'0 0.0
2014-Oct-14 17:33N 51°58' E 004°04'0 0.0
2014-Oct-14 16:33N 51°58' E 004°04'0 0.0
2014-Oct-14 15:33N 51°58' E 004°04'0 0.0
2014-Oct-14 14:33N 51°58' E 004°04'0 0.0
2014-Oct-14 13:33N 51°58' E 004°04'0 0.0
2014-Oct-14 12:33N 51°58' E 004°04'0 0.0
2014-Oct-14 11:33N 51°58' E 004°04'0 0.0
2014-Oct-14 10:33N 51°58' E 004°04'0 0.0
2014-Oct-14 09:33N 51°58' E 004°04'0 0.0
2014-Oct-14 08:30N 51°58' E 004°04'0 0.0
2014-Oct-14 07:33N 51°58' E 004°04'0 0.0
2014-Oct-14 06:33N 51°58' E 004°04'0 0.0
2014-Oct-14 05:33N 51°58' E 004°04'0 0.0
2014-Oct-14 04:34N 51°58' E 004°04'4 3.9
2014-Oct-14 03:34N 52°00' E 003°59'7 7.1
2014-Oct-14 02:33N 52°00' E 003°47'1010.2
2014-Oct-14 01:33N 51°57' E 003°32'4 3.4
2014-Oct-14 00:31N 51°54' E 003°27'0 0.0
2014-Oct-13 23:28N 51°54' E 003°28'0 0.1
2014-Oct-13 22:31N 51°54' E 003°28'0 0.0
2014-Oct-13 21:31N 51°54' E 003°28'4 4.0
2014-Oct-13 20:32N 51°53' E 003°22'1111.6
2014-Oct-13 19:33N 51°43' E 003°13'1615.7
2014-Oct-13 18:33N 51°29' E 003°02'1211.8
2014-Oct-13 17:34N 51°24' E 003°20'1413.5
2014-Oct-13 16:33N 51°26' E 003°41'9 9.3
2014-Oct-13 15:34N 51°22' E 003°55'6 5.6
2014-Oct-13 14:34N 51°22' E 004°04'8 8.3
2014-Oct-13 13:34N 51°21' E 004°17'0 0.4
2014-Oct-13 12:34N 51°21' E 004°17'1 0.6
2014-Oct-13 11:33N 51°20' E 004°18'1 1.2
2014-Oct-13 10:32N 51°19' E 004°19'0 0.0
2014-Oct-13 09:32N 51°19' E 004°19'  

Dump ship's entire track history